sensor_id;sensor_type;location;lat;lon;timestamp;pressure;altitude;pressure_sealevel;temperature;humidity
46291;BME280;32023;44.444;26.006;2023-04-28T00:01:47;100725.84;;;8.47;54.23
46291;BME280;32023;44.444;26.006;2023-04-28T00:04:14;100724.16;;;8.46;54.46
46291;BME280;32023;44.444;26.006;2023-04-28T00:06:42;100724.41;;;8.45;54.55
46291;BME280;32023;44.444;26.006;2023-04-28T00:09:09;100727.38;;;8.43;54.49
46291;BME280;32023;44.444;26.006;2023-04-28T00:11:40;100723.22;;;8.41;54.20
46291;BME280;32023;44.444;26.006;2023-04-28T00:14:24;100730.03;;;8.38;54.18
46291;BME280;32023;44.444;26.006;2023-04-28T00:16:59;100734.41;;;8.39;54.24
46291;BME280;32023;44.444;26.006;2023-04-28T00:19:29;100733.13;;;8.42;54.16
46291;BME280;32023;44.444;26.006;2023-04-28T00:21:57;100732.41;;;8.46;54.15
46291;BME280;32023;44.444;26.006;2023-04-28T00:24:30;100742.44;;;8.52;53.93
46291;BME280;32023;44.444;26.006;2023-04-28T00:27:02;100732.66;;;8.56;53.92
46291;BME280;32023;44.444;26.006;2023-04-28T00:29:31;100734.44;;;8.62;53.75
46291;BME280;32023;44.444;26.006;2023-04-28T00:31:57;100740.06;;;8.67;53.57
46291;BME280;32023;44.444;26.006;2023-04-28T00:34:24;100734.09;;;8.70;53.46
46291;BME280;32023;44.444;26.006;2023-04-28T00:36:53;100738.03;;;8.75;53.38
46291;BME280;32023;44.444;26.006;2023-04-28T00:39:29;100730.88;;;8.74;53.40
46291;BME280;32023;44.444;26.006;2023-04-28T00:41:55;100735.28;;;8.75;53.23
46291;BME280;32023;44.444;26.006;2023-04-28T00:44:22;100737.34;;;8.79;53.59
46291;BME280;32023;44.444;26.006;2023-04-28T00:46:49;100737.06;;;8.81;53.58
46291;BME280;32023;44.444;26.006;2023-04-28T00:49:19;100741.50;;;8.82;53.46
46291;BME280;32023;44.444;26.006;2023-04-28T00:51:46;100738.16;;;8.80;53.59
46291;BME280;32023;44.444;26.006;2023-04-28T00:54:21;100742.69;;;8.86;53.28
46291;BME280;32023;44.444;26.006;2023-04-28T00:56:48;100737.91;;;8.93;53.59
46291;BME280;32023;44.444;26.006;2023-04-28T00:59:28;100736.84;;;8.94;53.69
46291;BME280;32023;44.444;26.006;2023-04-28T01:01:59;100746.84;;;9.00;53.57
46291;BME280;32023;44.444;26.006;2023-04-28T01:07:49;100744.47;;;9.03;53.63
46291;BME280;32023;44.444;26.006;2023-04-28T01:10:15;100746.97;;;9.05;53.66
46291;BME280;32023;44.444;26.006;2023-04-28T01:12:42;100753.31;;;9.05;54.65
46291;BME280;32023;44.444;26.006;2023-04-28T01:15:15;100750.78;;;9.04;54.37
46291;BME280;32023;44.444;26.006;2023-04-28T01:17:48;100758.81;;;9.05;54.31
46291;BME280;32023;44.444;26.006;2023-04-28T01:20:17;100757.63;;;9.01;55.08
46291;BME280;32023;44.444;26.006;2023-04-28T01:22:43;100759.53;;;9.01;55.58
46291;BME280;32023;44.444;26.006;2023-04-28T01:25:10;100755.09;;;9.00;55.62
46291;BME280;32023;44.444;26.006;2023-04-28T01:27:36;100752.63;;;8.98;55.82
46291;BME280;32023;44.444;26.006;2023-04-28T01:30:03;100760.25;;;8.96;55.92
46291;BME280;32023;44.444;26.006;2023-04-28T01:32:29;100767.63;;;8.96;56.37
46291;BME280;32023;44.444;26.006;2023-04-28T01:34:55;100756.56;;;8.91;57.07
46291;BME280;32023;44.444;26.006;2023-04-28T01:37:22;100765.16;;;8.83;56.57
46291;BME280;32023;44.444;26.006;2023-04-28T01:39:49;100767.63;;;8.73;57.30
46291;BME280;32023;44.444;26.006;2023-04-28T01:42:16;100768.38;;;8.68;57.96
46291;BME280;32023;44.444;26.006;2023-04-28T01:44:45;100770.63;;;8.59;58.49
46291;BME280;32023;44.444;26.006;2023-04-28T01:47:11;100773.13;;;8.49;58.98
46291;BME280;32023;44.444;26.006;2023-04-28T01:49:40;100771.91;;;8.45;58.95
46291;BME280;32023;44.444;26.006;2023-04-28T01:52:07;100767.50;;;8.44;59.23
46291;BME280;32023;44.444;26.006;2023-04-28T01:54:36;100771.78;;;8.40;59.50
46291;BME280;32023;44.444;26.006;2023-04-28T01:57:02;100783.72;;;8.34;59.67
46291;BME280;32023;44.444;26.006;2023-04-28T01:59:29;100777.44;;;8.27;60.01
46291;BME280;32023;44.444;26.006;2023-04-28T02:01:56;100776.09;;;8.18;60.64
46291;BME280;32023;44.444;26.006;2023-04-28T02:04:23;100784.06;;;8.08;61.26
46291;BME280;32023;44.444;26.006;2023-04-28T02:06:50;100778.91;;;8.00;61.60
46291;BME280;32023;44.444;26.006;2023-04-28T02:09:17;100782.44;;;7.89;62.03
46291;BME280;32023;44.444;26.006;2023-04-28T02:11:46;100787.41;;;7.80;62.34
46291;BME280;32023;44.444;26.006;2023-04-28T02:14:14;100778.06;;;7.69;62.71
46291;BME280;32023;44.444;26.006;2023-04-28T02:16:42;100787.44;;;7.62;63.24
46291;BME280;32023;44.444;26.006;2023-04-28T02:19:11;100791.06;;;7.56;63.62
46291;BME280;32023;44.444;26.006;2023-04-28T02:21:38;100793.44;;;7.52;63.89
46291;BME280;32023;44.444;26.006;2023-04-28T02:24:04;100786.31;;;7.51;64.44
46291;BME280;32023;44.444;26.006;2023-04-28T02:26:33;100794.53;;;7.51;64.43
46291;BME280;32023;44.444;26.006;2023-04-28T02:29:01;100788.44;;;7.49;64.76
46291;BME280;32023;44.444;26.006;2023-04-28T02:31:30;100789.94;;;7.45;64.69
46291;BME280;32023;44.444;26.006;2023-04-28T02:33:56;100796.50;;;7.44;64.93
46291;BME280;32023;44.444;26.006;2023-04-28T02:36:22;100794.84;;;7.43;65.33
46291;BME280;32023;44.444;26.006;2023-04-28T02:38:51;100801.16;;;7.44;65.51
46291;BME280;32023;44.444;26.006;2023-04-28T02:41:18;100809.59;;;7.42;65.87
46291;BME280;32023;44.444;26.006;2023-04-28T02:43:44;100811.94;;;7.39;66.33
46291;BME280;32023;44.444;26.006;2023-04-28T02:46:13;100814.91;;;7.37;66.55
46291;BME280;32023;44.444;26.006;2023-04-28T02:48:42;100816.00;;;7.36;66.85
46291;BME280;32023;44.444;26.006;2023-04-28T02:51:15;100819.16;;;7.33;66.88
46291;BME280;32023;44.444;26.006;2023-04-28T02:53:42;100825.47;;;7.34;66.88
46291;BME280;32023;44.444;26.006;2023-04-28T02:56:08;100824.66;;;7.33;66.50
46291;BME280;32023;44.444;26.006;2023-04-28T02:58:35;100825.47;;;7.34;66.59
46291;BME280;32023;44.444;26.006;2023-04-28T03:01:04;100825.94;;;7.31;66.94
46291;BME280;32023;44.444;26.006;2023-04-28T03:03:32;100830.59;;;7.30;67.19
46291;BME280;32023;44.444;26.006;2023-04-28T03:05:59;100831.88;;;7.28;67.37
46291;BME280;32023;44.444;26.006;2023-04-28T03:08:29;100828.31;;;7.27;67.46
46291;BME280;32023;44.444;26.006;2023-04-28T03:10:55;100827.72;;;7.25;66.88
46291;BME280;32023;44.444;26.006;2023-04-28T03:13:24;100836.13;;;7.23;66.24
46291;BME280;32023;44.444;26.006;2023-04-28T03:15:50;100842.91;;;7.21;66.24
46291;BME280;32023;44.444;26.006;2023-04-28T03:18:17;100848.41;;;7.21;66.23
46291;BME280;32023;44.444;26.006;2023-04-28T03:20:44;100853.03;;;7.20;65.92
46291;BME280;32023;44.444;26.006;2023-04-28T03:23:12;100854.75;;;7.15;66.09
46291;BME280;32023;44.444;26.006;2023-04-28T03:25:52;100854.81;;;7.08;65.82
46291;BME280;32023;44.444;26.006;2023-04-28T03:28:18;100862.03;;;7.03;65.96
46291;BME280;32023;44.444;26.006;2023-04-28T03:30:44;100860.78;;;6.99;66.13
46291;BME280;32023;44.444;26.006;2023-04-28T03:33:12;100865.47;;;6.98;66.61
46291;BME280;32023;44.444;26.006;2023-04-28T03:35:38;100867.94;;;7.00;66.50
46291;BME280;32023;44.444;26.006;2023-04-28T03:38:04;100874.91;;;7.02;66.59
46291;BME280;32023;44.444;26.006;2023-04-28T03:40:32;100873.88;;;6.97;66.64
46291;BME280;32023;44.444;26.006;2023-04-28T03:43:05;100879.63;;;6.89;66.83
46291;BME280;32023;44.444;26.006;2023-04-28T03:45:33;100881.78;;;6.87;67.20
46291;BME280;32023;44.444;26.006;2023-04-28T03:48:04;100885.75;;;6.91;67.36
46291;BME280;32023;44.444;26.006;2023-04-28T03:50:44;100888.03;;;6.94;67.03
46291;BME280;32023;44.444;26.006;2023-04-28T03:53:11;100900.41;;;6.96;67.44
46291;BME280;32023;44.444;26.006;2023-04-28T03:55:45;100904.19;;;7.02;66.91
46291;BME280;32023;44.444;26.006;2023-04-28T03:58:11;100906.22;;;7.06;66.88
46291;BME280;32023;44.444;26.006;2023-04-28T04:00:37;100906.56;;;7.16;66.79
46291;BME280;32023;44.444;26.006;2023-04-28T04:03:06;100906.50;;;7.23;66.44
46291;BME280;32023;44.444;26.006;2023-04-28T04:05:33;100910.03;;;7.30;66.64
46291;BME280;32023;44.444;26.006;2023-04-28T04:08:02;100912.47;;;7.38;66.49
46291;BME280;32023;44.444;26.006;2023-04-28T04:10:29;100909.28;;;7.41;65.69
46291;BME280;32023;44.444;26.006;2023-04-28T04:12:56;100916.44;;;7.42;65.78
46291;BME280;32023;44.444;26.006;2023-04-28T04:15:22;100921.84;;;7.49;65.28
46291;BME280;32023;44.444;26.006;2023-04-28T04:17:48;100912.50;;;7.56;65.45
46291;BME280;32023;44.444;26.006;2023-04-28T04:20:15;100918.31;;;7.66;65.17
46291;BME280;32023;44.444;26.006;2023-04-28T04:22:42;100916.94;;;7.75;64.56
46291;BME280;32023;44.444;26.006;2023-04-28T04:32:23;100921.25;;;8.01;63.66
46291;BME280;32023;44.444;26.006;2023-04-28T04:35:08;100932.78;;;8.10;63.31
46291;BME280;32023;44.444;26.006;2023-04-28T04:41:21;100926.50;;;8.21;62.44
46291;BME280;32023;44.444;26.006;2023-04-28T04:44:29;100970.78;;;8.24;62.07
46291;BME280;32023;44.444;26.006;2023-04-28T04:47:03;100941.63;;;8.30;61.89
46291;BME280;32023;44.444;26.006;2023-04-28T04:56:34;100948.16;;;8.47;62.03
46291;BME280;32023;44.444;26.006;2023-04-28T05:04:14;100945.28;;;8.72;61.57
46291;BME280;32023;44.444;26.006;2023-04-28T05:07:12;100947.31;;;8.77;61.49
46291;BME280;32023;44.444;26.006;2023-04-28T05:09:43;100952.72;;;8.83;61.27
46291;BME280;32023;44.444;26.006;2023-04-28T05:12:10;100955.09;;;8.91;61.13
46291;BME280;32023;44.444;26.006;2023-04-28T05:14:44;100953.34;;;8.97;60.81
46291;BME280;32023;44.444;26.006;2023-04-28T05:17:26;100959.56;;;9.04;61.00
46291;BME280;32023;44.444;26.006;2023-04-28T05:20:47;100956.84;;;9.15;61.01
46291;BME280;32023;44.444;26.006;2023-04-28T05:23:29;100957.09;;;9.26;60.78
46291;BME280;32023;44.444;26.006;2023-04-28T05:44:12;100970.81;;;10.70;58.23
46291;BME280;32023;44.444;26.006;2023-04-28T05:47:25;100975.91;;;10.90;56.34
46291;BME280;32023;44.444;26.006;2023-04-28T05:50:03;100971.84;;;11.09;55.33
46291;BME280;32023;44.444;26.006;2023-04-28T05:52:35;100971.44;;;11.17;54.12
46291;BME280;32023;44.444;26.006;2023-04-28T05:55:13;100977.63;;;11.24;54.09
46291;BME280;32023;44.444;26.006;2023-04-28T05:57:54;100976.63;;;11.30;53.47
46291;BME280;32023;44.444;26.006;2023-04-28T06:00:21;100976.38;;;11.48;53.15
46291;BME280;32023;44.444;26.006;2023-04-28T06:02:50;100980.16;;;11.76;52.40
46291;BME280;32023;44.444;26.006;2023-04-28T06:05:28;100978.59;;;12.01;52.04
46291;BME280;32023;44.444;26.006;2023-04-28T06:08:08;100978.31;;;12.20;51.11
46291;BME280;32023;44.444;26.006;2023-04-28T06:10:35;100983.91;;;12.25;49.58
46291;BME280;32023;44.444;26.006;2023-04-28T06:13:03;100978.06;;;12.21;49.51
46291;BME280;32023;44.444;26.006;2023-04-28T06:15:38;100985.34;;;12.27;48.49
46291;BME280;32023;44.444;26.006;2023-04-28T06:18:08;100977.28;;;12.47;48.95
46291;BME280;32023;44.444;26.006;2023-04-28T06:21:05;100989.78;;;12.77;48.44
46291;BME280;32023;44.444;26.006;2023-04-28T06:23:37;100983.41;;;12.98;47.97
46291;BME280;32023;44.444;26.006;2023-04-28T06:26:16;100986.38;;;13.13;46.95
46291;BME280;32023;44.444;26.006;2023-04-28T06:28:43;100982.50;;;13.14;47.05
46291;BME280;32023;44.444;26.006;2023-04-28T06:31:09;100989.22;;;13.23;46.59
46291;BME280;32023;44.444;26.006;2023-04-28T06:33:35;100995.97;;;13.32;45.05
46291;BME280;32023;44.444;26.006;2023-04-28T06:36:07;100991.28;;;13.38;44.53
46291;BME280;32023;44.444;26.006;2023-04-28T06:38:37;100984.56;;;13.61;44.41
46291;BME280;32023;44.444;26.006;2023-04-28T06:41:03;100995.81;;;13.81;44.09
46291;BME280;32023;44.444;26.006;2023-04-28T06:43:33;100990.34;;;13.91;43.25
46291;BME280;32023;44.444;26.006;2023-04-28T06:46:07;100988.66;;;13.90;41.97
46291;BME280;32023;44.444;26.006;2023-04-28T06:48:50;100990.38;;;13.96;42.38
46291;BME280;32023;44.444;26.006;2023-04-28T06:51:20;100990.97;;;14.03;42.00
46291;BME280;32023;44.444;26.006;2023-04-28T06:54:05;100996.84;;;14.12;41.53
46291;BME280;32023;44.444;26.006;2023-04-28T06:56:32;100991.94;;;14.29;41.60
46291;BME280;32023;44.444;26.006;2023-04-28T06:58:59;100992.63;;;14.46;40.69
46291;BME280;32023;44.444;26.006;2023-04-28T07:01:26;100985.75;;;14.54;39.16
46291;BME280;32023;44.444;26.006;2023-04-28T07:03:55;100985.13;;;14.46;38.95
46291;BME280;32023;44.444;26.006;2023-04-28T07:06:21;100983.47;;;14.45;38.61
46291;BME280;32023;44.444;26.006;2023-04-28T07:08:50;100982.38;;;14.52;38.23
46291;BME280;32023;44.444;26.006;2023-04-28T07:11:20;100977.69;;;14.52;38.01
46291;BME280;32023;44.444;26.006;2023-04-28T07:13:49;100985.47;;;14.60;38.02
46291;BME280;32023;44.444;26.006;2023-04-28T07:16:19;100988.00;;;14.67;38.32
46291;BME280;32023;44.444;26.006;2023-04-28T07:18:49;100983.03;;;14.69;38.04
46291;BME280;32023;44.444;26.006;2023-04-28T07:21:33;100988.63;;;14.84;38.07
46291;BME280;32023;44.444;26.006;2023-04-28T07:24:00;100978.66;;;14.93;38.04
46291;BME280;32023;44.444;26.006;2023-04-28T07:26:27;100983.69;;;15.16;36.92
46291;BME280;32023;44.444;26.006;2023-04-28T07:29:01;100979.84;;;15.42;35.74
46291;BME280;32023;44.444;26.006;2023-04-28T07:31:27;100979.00;;;15.42;35.36
46291;BME280;32023;44.444;26.006;2023-04-28T07:33:54;100981.22;;;15.35;34.37
46291;BME280;32023;44.444;26.006;2023-04-28T07:36:21;100982.34;;;15.29;34.41
46291;BME280;32023;44.444;26.006;2023-04-28T07:38:52;100980.41;;;15.39;34.74
46291;BME280;32023;44.444;26.006;2023-04-28T07:41:21;100983.19;;;15.45;34.28
46291;BME280;32023;44.444;26.006;2023-04-28T07:43:55;100984.84;;;15.61;34.28
46291;BME280;32023;44.444;26.006;2023-04-28T07:46:21;100985.13;;;15.84;33.73
46291;BME280;32023;44.444;26.006;2023-04-28T07:48:48;100979.56;;;15.95;32.48
46291;BME280;32023;44.444;26.006;2023-04-28T07:51:15;100977.88;;;15.99;32.23
46291;BME280;32023;44.444;26.006;2023-04-28T07:53:41;100977.00;;;16.13;31.68
46291;BME280;32023;44.444;26.006;2023-04-28T07:56:15;100972.00;;;16.20;32.24
46291;BME280;32023;44.444;26.006;2023-04-28T07:58:49;100974.19;;;16.38;31.86
46291;BME280;32023;44.444;26.006;2023-04-28T08:01:16;100959.09;;;16.60;31.21
46291;BME280;32023;44.444;26.006;2023-04-28T08:03:42;100970.97;;;16.75;31.21
46291;BME280;32023;44.444;26.006;2023-04-28T08:06:16;100960.56;;;16.96;31.23
46291;BME280;32023;44.444;26.006;2023-04-28T08:08:44;100971.66;;;17.01;30.15
46291;BME280;32023;44.444;26.006;2023-04-28T08:11:10;100953.50;;;17.14;29.76
46291;BME280;32023;44.444;26.006;2023-04-28T08:13:40;100958.66;;;17.30;28.58
46291;BME280;32023;44.444;26.006;2023-04-28T08:16:06;100951.56;;;17.48;27.72
46291;BME280;32023;44.444;26.006;2023-04-28T08:18:33;100958.06;;;17.72;28.18
46291;BME280;32023;44.444;26.006;2023-04-28T08:20:59;100951.47;;;17.92;27.92
46291;BME280;32023;44.444;26.006;2023-04-28T08:23:26;100952.50;;;18.25;27.66
46291;BME280;32023;44.444;26.006;2023-04-28T08:25:55;100948.84;;;18.53;27.13
46291;BME280;32023;44.444;26.006;2023-04-28T08:28:24;100945.00;;;18.68;27.06
46291;BME280;32023;44.444;26.006;2023-04-28T08:30:58;100949.53;;;18.64;26.48
46291;BME280;32023;44.444;26.006;2023-04-28T08:33:27;100942.28;;;18.63;26.18
46291;BME280;32023;44.444;26.006;2023-04-28T08:35:54;100942.53;;;18.85;25.90
46291;BME280;32023;44.444;26.006;2023-04-28T08:41:44;100932.47;;;19.59;24.88
46291;BME280;32023;44.444;26.006;2023-04-28T08:47:16;100890.44;;;19.32;25.03
46291;BME280;32023;44.444;26.006;2023-04-28T08:49:45;100926.59;;;19.42;25.36
46291;BME280;32023;44.444;26.006;2023-04-28T08:52:16;100929.34;;;18.91;26.07
46291;BME280;32023;44.444;26.006;2023-04-28T08:54:47;100926.25;;;18.92;26.50
46291;BME280;32023;44.444;26.006;2023-04-28T08:57:14;100924.66;;;18.86;26.54
46291;BME280;32023;44.444;26.006;2023-04-28T08:59:46;100930.31;;;19.00;27.16
46291;BME280;32023;44.444;26.006;2023-04-28T09:02:15;100924.44;;;19.01;27.23
46291;BME280;32023;44.444;26.006;2023-04-28T09:04:43;100918.47;;;18.89;27.16
46291;BME280;32023;44.444;26.006;2023-04-28T09:07:13;100925.34;;;18.78;26.89
46291;BME280;32023;44.444;26.006;2023-04-28T09:09:43;100919.84;;;18.73;27.37
46291;BME280;32023;44.444;26.006;2023-04-28T09:12:10;100916.06;;;18.64;27.43
46291;BME280;32023;44.444;26.006;2023-04-28T09:14:40;100921.03;;;18.43;27.36
46291;BME280;32023;44.444;26.006;2023-04-28T09:17:11;100920.63;;;18.07;27.25
46291;BME280;32023;44.444;26.006;2023-04-28T09:19:39;100913.47;;;18.01;27.23
46291;BME280;32023;44.444;26.006;2023-04-28T09:22:27;100901.06;;;17.89;27.75
46291;BME280;32023;44.444;26.006;2023-04-28T09:24:56;100914.03;;;17.98;28.06
46291;BME280;32023;44.444;26.006;2023-04-28T09:27:35;100908.59;;;18.12;28.11
46291;BME280;32023;44.444;26.006;2023-04-28T09:30:03;100898.53;;;18.16;28.34
46291;BME280;32023;44.444;26.006;2023-04-28T09:32:33;100896.16;;;18.04;28.42
46291;BME280;32023;44.444;26.006;2023-04-28T09:35:05;100896.06;;;18.09;28.50
46291;BME280;32023;44.444;26.006;2023-04-28T09:37:33;100889.97;;;18.31;27.06
46291;BME280;32023;44.444;26.006;2023-04-28T09:40:09;100882.63;;;18.59;26.05
46291;BME280;32023;44.444;26.006;2023-04-28T09:42:45;100881.53;;;18.60;26.24
46291;BME280;32023;44.444;26.006;2023-04-28T09:45:13;100877.00;;;18.64;26.51
46291;BME280;32023;44.444;26.006;2023-04-28T09:47:42;100874.78;;;18.42;26.86
46291;BME280;32023;44.444;26.006;2023-04-28T09:50:14;100880.72;;;17.88;28.42
46291;BME280;32023;44.444;26.006;2023-04-28T09:52:43;100879.66;;;17.84;27.83
46291;BME280;32023;44.444;26.006;2023-04-28T09:55:14;100872.88;;;17.66;28.30
46291;BME280;32023;44.444;26.006;2023-04-28T09:57:44;100856.28;;;18.27;28.31
46291;BME280;32023;44.444;26.006;2023-04-28T10:00:22;100859.81;;;18.57;26.39
46291;BME280;32023;44.444;26.006;2023-04-28T10:02:50;100855.34;;;18.56;25.94
46291;BME280;32023;44.444;26.006;2023-04-28T10:05:21;100851.00;;;18.68;25.88
46291;BME280;32023;44.444;26.006;2023-04-28T10:07:48;100858.91;;;18.19;26.54
46291;BME280;32023;44.444;26.006;2023-04-28T10:10:15;100848.47;;;17.53;27.18
46291;BME280;32023;44.444;26.006;2023-04-28T10:12:44;100849.06;;;16.88;29.15
46291;BME280;32023;44.444;26.006;2023-04-28T10:15:18;100862.44;;;16.31;30.01
46291;BME280;32023;44.444;26.006;2023-04-28T10:17:48;100856.38;;;16.24;30.05
46291;BME280;32023;44.444;26.006;2023-04-28T10:20:28;100849.47;;;16.71;29.95
46291;BME280;32023;44.444;26.006;2023-04-28T10:25:56;100852.84;;;19.10;26.42
46291;BME280;32023;44.444;26.006;2023-04-28T10:28:26;100844.22;;;19.85;25.62
46291;BME280;32023;44.444;26.006;2023-04-28T10:31:11;100841.38;;;19.44;25.08
46291;BME280;32023;44.444;26.006;2023-04-28T10:33:40;100845.56;;;18.96;25.49
46291;BME280;32023;44.444;26.006;2023-04-28T10:39:34;100839.19;;;18.90;26.19
46291;BME280;32023;44.444;26.006;2023-04-28T10:43:03;100831.16;;;18.51;26.25
46291;BME280;32023;44.444;26.006;2023-04-28T10:55:39;100810.13;;;26.94;16.65
46291;BME280;32023;44.444;26.006;2023-04-28T11:00:56;100802.59;;;24.24;18.77
46291;BME280;32023;44.444;26.006;2023-04-28T11:06:38;100800.50;;;23.75;19.07
46291;BME280;32023;44.444;26.006;2023-04-28T11:16:58;100788.09;;;26.11;16.56
46291;BME280;32023;44.444;26.006;2023-04-28T11:19:29;100777.81;;;27.07;16.38
46291;BME280;32023;44.444;26.006;2023-04-28T11:22:24;100779.09;;;26.69;16.40
46291;BME280;32023;44.444;26.006;2023-04-28T11:25:19;100775.06;;;25.25;17.55
46291;BME280;32023;44.444;26.006;2023-04-28T11:27:48;100772.50;;;24.37;17.35
46291;BME280;32023;44.444;26.006;2023-04-28T11:30:21;100782.25;;;24.10;17.70
46291;BME280;32023;44.444;26.006;2023-04-28T11:32:56;100774.72;;;24.52;17.52
46291;BME280;32023;44.444;26.006;2023-04-28T11:35:25;100764.84;;;24.87;17.24
46291;BME280;32023;44.444;26.006;2023-04-28T11:38:14;100764.44;;;24.35;17.38
46291;BME280;32023;44.444;26.006;2023-04-28T11:40:56;100765.97;;;23.57;17.87
46291;BME280;32023;44.444;26.006;2023-04-28T11:43:31;100772.72;;;23.10;18.23
46291;BME280;32023;44.444;26.006;2023-04-28T11:46:09;100774.91;;;22.70;18.56
46291;BME280;32023;44.444;26.006;2023-04-28T11:48:47;100762.66;;;22.57;18.67
46291;BME280;32023;44.444;26.006;2023-04-28T11:51:34;100766.44;;;22.52;18.74
46291;BME280;32023;44.444;26.006;2023-04-28T11:54:05;100767.38;;;21.96;19.03
46291;BME280;32023;44.444;26.006;2023-04-28T11:56:40;100761.44;;;21.28;19.50
46291;BME280;32023;44.444;26.006;2023-04-28T11:59:14;100750.56;;;21.04;19.92
46291;BME280;32023;44.444;26.006;2023-04-28T12:01:55;100753.47;;;20.68;20.83
46291;BME280;32023;44.444;26.006;2023-04-28T12:04:41;100743.84;;;20.38;21.08
46291;BME280;32023;44.444;26.006;2023-04-28T12:07:19;100747.84;;;20.46;21.26
46291;BME280;32023;44.444;26.006;2023-04-28T12:10:19;100747.09;;;20.76;21.03
46291;BME280;32023;44.444;26.006;2023-04-28T12:12:54;100742.34;;;21.07;20.94
46291;BME280;32023;44.444;26.006;2023-04-28T12:15:41;100742.97;;;21.27;20.70
46291;BME280;32023;44.444;26.006;2023-04-28T12:18:14;100742.72;;;21.37;20.27
46291;BME280;32023;44.444;26.006;2023-04-28T12:20:52;100734.44;;;21.32;20.12
46291;BME280;32023;44.444;26.006;2023-04-28T12:23:48;100721.41;;;21.27;19.86
46291;BME280;32023;44.444;26.006;2023-04-28T12:26:34;100719.78;;;21.26;20.04
46291;BME280;32023;44.444;26.006;2023-04-28T12:39:31;100695.38;;;21.04;20.41
46291;BME280;32023;44.444;26.006;2023-04-28T12:42:04;100694.38;;;21.00;20.67
46291;BME280;32023;44.444;26.006;2023-04-28T12:44:47;100691.31;;;20.80;20.27
46291;BME280;32023;44.444;26.006;2023-04-28T12:47:19;100681.84;;;20.45;20.69
46291;BME280;32023;44.444;26.006;2023-04-28T12:49:46;100679.63;;;20.19;20.68
46291;BME280;32023;44.444;26.006;2023-04-28T12:52:15;100679.38;;;20.07;21.28
46291;BME280;32023;44.444;26.006;2023-04-28T12:54:41;100671.81;;;20.08;21.89
46291;BME280;32023;44.444;26.006;2023-04-28T12:57:19;100679.09;;;19.95;21.57
46291;BME280;32023;44.444;26.006;2023-04-28T12:59:46;100668.63;;;19.87;21.50
46291;BME280;32023;44.444;26.006;2023-04-28T13:02:40;100659.31;;;19.92;21.87
46291;BME280;32023;44.444;26.006;2023-04-28T13:05:06;100659.84;;;19.94;22.26
46291;BME280;32023;44.444;26.006;2023-04-28T13:07:36;100665.38;;;20.07;22.38
46291;BME280;32023;44.444;26.006;2023-04-28T13:10:03;100659.69;;;20.12;22.27
46291;BME280;32023;44.444;26.006;2023-04-28T13:12:30;100666.53;;;20.06;22.02
46291;BME280;32023;44.444;26.006;2023-04-28T13:14:56;100667.25;;;19.98;22.35
46291;BME280;32023;44.444;26.006;2023-04-28T13:17:23;100656.47;;;20.05;22.10
46291;BME280;32023;44.444;26.006;2023-04-28T13:19:52;100662.75;;;19.89;21.59
46291;BME280;32023;44.444;26.006;2023-04-28T13:22:18;100660.88;;;19.84;22.01
46291;BME280;32023;44.444;26.006;2023-04-28T13:24:47;100659.88;;;19.80;22.31
46291;BME280;32023;44.444;26.006;2023-04-28T13:27:14;100667.75;;;19.78;22.09
46291;BME280;32023;44.444;26.006;2023-04-28T13:29:40;100659.69;;;19.63;21.99
46291;BME280;32023;44.444;26.006;2023-04-28T13:32:08;100663.75;;;19.43;22.03
46291;BME280;32023;44.444;26.006;2023-04-28T13:34:42;100657.88;;;19.45;22.43
46291;BME280;32023;44.444;26.006;2023-04-28T13:37:23;100654.75;;;19.46;22.31
46291;BME280;32023;44.444;26.006;2023-04-28T13:39:50;100657.00;;;19.58;22.09
46291;BME280;32023;44.444;26.006;2023-04-28T13:42:24;100654.75;;;19.60;22.24
46291;BME280;32023;44.444;26.006;2023-04-28T13:45:00;100647.50;;;19.59;22.04
46291;BME280;32023;44.444;26.006;2023-04-28T13:47:36;100637.75;;;19.56;22.31
46291;BME280;32023;44.444;26.006;2023-04-28T13:50:06;100644.59;;;19.50;22.86
46291;BME280;32023;44.444;26.006;2023-04-28T13:52:38;100642.31;;;19.39;22.74
46291;BME280;32023;44.444;26.006;2023-04-28T13:55:20;100635.56;;;19.26;23.14
46291;BME280;32023;44.444;26.006;2023-04-28T13:57:53;100641.50;;;19.11;23.15
46291;BME280;32023;44.444;26.006;2023-04-28T14:00:29;100633.72;;;19.08;23.45
46291;BME280;32023;44.444;26.006;2023-04-28T14:02:55;100632.16;;;19.15;23.59
46291;BME280;32023;44.444;26.006;2023-04-28T14:05:22;100630.53;;;19.14;23.28
46291;BME280;32023;44.444;26.006;2023-04-28T14:07:53;100647.59;;;19.13;23.06
46291;BME280;32023;44.444;26.006;2023-04-28T14:10:25;100634.56;;;19.08;23.13
46291;BME280;32023;44.444;26.006;2023-04-28T14:12:55;100626.31;;;19.03;23.66
46291;BME280;32023;44.444;26.006;2023-04-28T14:15:29;100628.25;;;19.03;23.74
46291;BME280;32023;44.444;26.006;2023-04-28T14:17:58;100631.75;;;19.08;24.34
46291;BME280;32023;44.444;26.006;2023-04-28T14:20:25;100622.34;;;19.04;24.42
46291;BME280;32023;44.444;26.006;2023-04-28T14:22:55;100631.34;;;19.01;24.58
46291;BME280;32023;44.444;26.006;2023-04-28T14:25:22;100627.94;;;18.91;24.46
46291;BME280;32023;44.444;26.006;2023-04-28T14:27:50;100622.00;;;18.65;24.43
46291;BME280;32023;44.444;26.006;2023-04-28T14:30:17;100620.53;;;18.54;25.04
46291;BME280;32023;44.444;26.006;2023-04-28T14:32:47;100622.19;;;18.55;25.39
46291;BME280;32023;44.444;26.006;2023-04-28T14:35:14;100618.81;;;18.58;25.42
46291;BME280;32023;44.444;26.006;2023-04-28T14:37:41;100622.84;;;18.65;25.44